M I D A S
Marine Information and Data Acquisition System
Tripno 646 of the Zeeleeuw from 2004-02-11 07:52:58 to 2004-02-11 17:59:42
Back to CruiseResearch ActivitiesStationsMapUnderway DataData graphs

EquipmentUnitsComment
TimeDGPSUTC
LatitudeDGPSDM.mWGS84
LongitudeDGPSDM.mWGS84
HeadingGyrodeg 
SOGDGPSknotsSpeed over ground
COGDGPSdegCourse over ground
DepthEcho soundermeters200 kHz
Missing or incorrect values are displayed as -999
Navigation data collected by the RV Zeeleeuw from 2004-02-11 07:52:58 to 2004-02-11 17:59:42
Time Latitude Longitude Heading SOG COG Depth
2004-02-11 07:54:01 51°13.631 2°55.966 122.4 5.2 297 -999
2004-02-11 07:55:01 51°13.675 2°55.846 126.1 5.3 302 -999
2004-02-11 07:55:59 51°13.686 2°55.819 92.9 0.7 263 10.1
2004-02-11 07:57:01 51°13.683 2°55.763 76.9 0.8 267 -999
2004-02-11 07:57:59 51°13.708 2°55.778 2.2 0.2 355 12.8
2004-02-11 07:59:01 51°13.718 2°55.757 323.7 2.3 318 -999
2004-02-11 07:59:59 51°13.77 2°55.686 329.5 6 324 9.5
2004-02-11 08:00:59 51°13.876 2°55.596 339.8 7.7 334 9.5
2004-02-11 08:01:59 51°14 2°55.513 344.5 8.4 339 9.3
2004-02-11 08:02:59 51°14.142 2°55.413 338.4 9.8 332 9.4
2004-02-11 08:03:59 51°14.278 2°55.232 317.1 11.2 311 9.6
2004-02-11 08:05:00 51°14.399 2°54.983 315.7 12 308 10.1
2004-02-11 08:06:00 51°14.497 2°54.724 317.1 9.6 305 10.5
2004-02-11 08:06:59 51°14.57 2°54.538 312.5 7.9 299 9.8
2004-02-11 08:07:59 51°14.666 2°54.298 313.3 13 303 9.9
2004-02-11 08:09:01 51°14.785 2°53.978 310.3 13.7 301 9.3
2004-02-11 08:09:59 51°14.901 2°53.676 310.9 13.7 301 9.2
2004-02-11 08:10:59 51°15.021 2°53.364 311 13.8 302 9.2
2004-02-11 08:11:59 51°15.133 2°53.04 306.4 14 297 9.5
2004-02-11 08:12:59 51°15.234 2°52.702 304.6 14.2 295 10.4
2004-02-11 08:13:59 51°15.335 2°52.365 304.9 14 295 11
2004-02-11 08:14:59 51°15.419 2°52.018 296.6 14.1 287 11.4
2004-02-11 08:15:59 51°15.464 2°51.647 284.1 14.5 276 11.8
2004-02-11 08:16:59 51°15.489 2°51.266 284.5 14.3 276 12.4
2004-02-11 08:18:00 51°15.518 2°50.881 284.5 14.5 277 12.4
2004-02-11 08:18:59 51°15.546 2°50.509 284.3 14.4 276 12.4
2004-02-11 08:20:00 51°15.578 2°50.123 285.1 14.4 277 12.3
2004-02-11 08:20:59 51°15.6 2°49.747 281.6 14.5 274 12.2
2004-02-11 08:21:59 51°15.619 2°49.367 281 14.4 275 11
2004-02-11 08:22:59 51°15.64 2°48.989 282.2 14.3 276 9.8
2004-02-11 08:23:59 51°15.662 2°48.611 282.6 14.4 276 10
2004-02-11 08:24:59 51°15.686 2°48.229 282.3 14.5 275 10.7
2004-02-11 08:25:59 51°15.707 2°47.844 282.2 14.7 276 12.5
2004-02-11 08:26:59 51°15.73 2°47.458 282.8 14.6 276 13.9
2004-02-11 08:27:59 51°15.75 2°47.073 282.3 14.5 278 15.3
2004-02-11 08:28:59 51°15.76 2°46.691 279.7 14.5 274 16
2004-02-11 08:30:00 51°15.773 2°46.301 280.3 14.6 274 15.9
2004-02-11 08:31:00 51°15.785 2°45.916 280.5 14.6 275 15.6
2004-02-11 08:31:59 51°15.797 2°45.539 279.6 14.7 271 13
2004-02-11 08:33:00 51°15.82 2°45.151 283.5 14.4 277 12.1
2004-02-11 08:33:59 51°15.848 2°44.781 286.5 14.4 279 11.2
2004-02-11 08:34:59 51°15.897 2°44.409 288.3 14.2 282 10.2
2004-02-11 08:35:59 51°15.994 2°44.077 319.1 13.8 313 10.6
2004-02-11 08:36:59 51°16.175 2°43.859 337.6 13.5 327 11.6
2004-02-11 08:38:00 51°16.368 2°43.652 335.1 13.7 327 13.3
2004-02-11 08:39:00 51°16.557 2°43.454 336.8 13.6 328 13.1
2004-02-11 08:39:59 51°16.748 2°43.277 340 13.3 330 12.1
2004-02-11 08:41:00 51°16.949 2°43.104 341.2 13.4 331 12.7
2004-02-11 08:41:59 51°17.145 2°42.945 343.4 13.5 334 9.2
2004-02-11 08:42:59 51°17.347 2°42.778 343.5 14.4 334 10.3
2004-02-11 08:43:59 51°17.56 2°42.619 346.6 13.7 337 20.3
2004-02-11 08:45:00 51°17.769 2°42.48 346.6 13.3 338 22.2
2004-02-11 08:45:59 51°17.973 2°42.344 346.7 13.5 337 22.9
2004-02-11 08:46:59 51°18.178 2°42.193 344.4 13.4 335 22.9
2004-02-11 08:47:59 51°18.379 2°42.04 344.3 13.3 334 22.5
2004-02-11 08:48:59 51°18.582 2°41.913 349.8 13.4 341 22
2004-02-11 08:49:59 51°18.793 2°41.796 349.4 13.5 341 20.4
2004-02-11 08:50:59 51°19.002 2°41.681 350.4 13.1 342 20.1
2004-02-11 08:52:00 51°19.212 2°41.592 354.9 13 346 19.4
2004-02-11 08:52:59 51°19.421 2°41.502 354.8 13.2 345 18.1
2004-02-11 08:53:59 51°19.635 2°41.439 0.1 13.1 350 16.6
2004-02-11 08:54:59 51°19.85 2°41.395 5.6 13 354 17.3
2004-02-11 08:56:00 51°20.07 2°41.397 14.5 13.1 4 18.4
2004-02-11 08:57:00 51°20.286 2°41.431 13.9 13 4 20.7
2004-02-11 08:57:59 51°20.441 2°41.506 54.3 5.6 60 18.5
2004-02-11 08:58:59 51°20.436 2°41.585 91.9 0.9 160 20.5
2004-02-11 08:59:59 51°20.43 2°41.584 64.8 0.3 180 20.5
2004-02-11 09:00:59 51°20.426 2°41.578 53.2 0.4 245 20.7
2004-02-11 09:01:59 51°20.423 2°41.569 43.4 0.6 263 20.4
2004-02-11 09:02:59 51°20.423 2°41.56 30 0.4 312 20
2004-02-11 09:03:59 51°20.427 2°41.547 20.6 0.7 297 19.5
2004-02-11 09:05:00 51°20.438 2°41.528 8 1.2 320 19
2004-02-11 09:06:00 51°20.459 2°41.505 7.5 1.7 329 19
2004-02-11 09:06:59 51°20.475 2°41.483 10 1.4 320 19
2004-02-11 09:08:01 51°20.499 2°41.51 78.9 2.8 78 19.2
2004-02-11 09:09:00 51°20.443 2°41.578 161.7 5.8 173 20.2
2004-02-11 09:10:00 51°20.312 2°41.459 220.7 10.8 221 20.3
2004-02-11 09:10:59 51°20.167 2°41.291 203 9.7 204 20.1
2004-02-11 09:11:59 51°20.053 2°41.242 157.8 5.3 164 20.4
2004-02-11 09:12:59 51°20.048 2°41.335 51.5 4.3 38 18.4
2004-02-11 09:14:00 51°20.106 2°41.31 337 3.2 316 19.7
2004-02-11 09:15:01 51°20.094 2°41.283 326.5 1.5 235 -999
2004-02-11 09:16:00 51°20.102 2°41.234 340.2 1.8 288 20.8
2004-02-11 09:17:00 51°20.107 2°41.196 358.4 1.3 282 20.6
2004-02-11 09:17:59 51°20.109 2°41.172 33.3 0.6 274 20.9
2004-02-11 09:19:00 51°20.123 2°41.182 47.9 3.8 41 20.2
2004-02-11 09:20:00 51°20.097 2°41.301 131.9 5 139 19.8
2004-02-11 09:21:00 51°20.092 2°41.377 67.3 1.3 58 19.5
2004-02-11 09:21:59 51°20.095 2°41.391 68.2 0.4 93 19.1
2004-02-11 09:22:59 51°20.093 2°41.388 62.7 0.5 226 19.3
2004-02-11 09:23:59 51°20.088 2°41.376 58.2 0.6 244 19.2
2004-02-11 09:25:01 51°20.081 2°41.357 56.5 1 224 19.4
2004-02-11 09:25:59 51°20.069 2°41.334 61.6 1.2 229 19.9
2004-02-11 09:26:59 51°20.059 2°41.316 64 1 258 18.2
2004-02-11 09:27:59 51°20.055 2°41.303 55.1 0.5 260 18.8
2004-02-11 09:29:00 51°20.054 2°41.291 48.7 0.4 258 19
2004-02-11 09:30:00 51°20.059 2°41.281 29.4 1.8 353 19.4
2004-02-11 09:30:59 51°20.098 2°41.202 295 5.4 276 20.3
2004-02-11 09:32:00 51°20.025 2°41.07 200.3 9.7 202 20.1
2004-02-11 09:33:00 51°19.849 2°40.946 202 12.4 206 17.8
2004-02-11 09:33:59 51°19.721 2°40.884 160.5 5.5 171 17.2
2004-02-11 09:34:59 51°19.691 2°40.95 83.9 1.8 93 18.6
2004-02-11 09:35:59 51°19.693 2°40.967 60.2 0.5 64 17.9
2004-02-11 09:37:00 51°19.695 2°40.968 54.4 0.1 256 17.6
2004-02-11 09:37:59 51°19.692 2°40.961 56.1 0.2 260 18.8
2004-02-11 09:39:00 51°19.689 2°40.957 61.2 0.3 159 18.4
2004-02-11 09:39:59 51°19.688 2°40.955 57.7 0.2 336 18.5
2004-02-11 09:40:59 51°19.69 2°40.953 52.2 0.4 335 18.3
2004-02-11 09:41:59 51°19.691 2°40.949 55.1 0.1 210 18.7
2004-02-11 09:42:59 51°19.69 2°40.947 57.3 0.4 133 18.4
2004-02-11 09:44:00 51°19.687 2°40.942 60.9 0.4 182 19.1
2004-02-11 09:44:59 51°19.686 2°40.938 61.6 0.3 171 19.3
2004-02-11 09:45:59 51°19.684 2°40.938 62 0.6 144 19
2004-02-11 09:47:00 51°19.666 2°40.981 124.8 3.8 148 17.9
2004-02-11 09:48:00 51°19.547 2°40.908 220.8 11.4 223 14.9
2004-02-11 09:48:59 51°19.386 2°40.704 214.1 11.9 214 11.5
2004-02-11 09:49:59 51°19.26 2°40.641 149.4 5.5 155 13.3
2004-02-11 09:50:59 51°19.249 2°40.721 60.9 3.2 48 16
2004-02-11 09:51:59 51°19.313 2°40.734 14.4 3.4 352 14.7
2004-02-11 09:53:00 51°19.331 2°40.729 61.4 0.6 229 14.2
2004-02-11 09:54:00 51°19.322 2°40.711 71.4 0.7 230 11.5
2004-02-11 09:55:00 51°19.317 2°40.705 57.3 0.5 320 12.9
2004-02-11 09:55:59 51°19.32 2°40.704 47.8 0.3 334 13.2
2004-02-11 09:57:00 51°19.324 2°40.696 39.4 0.3 290 13.9
2004-02-11 09:57:59 51°19.321 2°40.682 40.3 0.6 246 16
2004-02-11 09:58:59 51°19.312 2°40.665 49.6 0.8 228 16.5
2004-02-11 10:00:00 51°19.298 2°40.64 63.1 1.4 232 13.9
2004-02-11 10:00:59 51°19.285 2°40.616 59.5 1.3 228 14.6
2004-02-11 10:02:00 51°19.272 2°40.592 52.2 1.1 238 16.3
2004-02-11 10:03:00 51°19.259 2°40.571 52.6 0.7 216 17.8
2004-02-11 10:03:59 51°19.294 2°40.538 331.2 4.6 304 17.5
2004-02-11 10:04:59 51°19.269 2°40.392 228 7.2 222 15.5
2004-02-11 10:06:00 51°19.173 2°40.374 145.1 5 160 17.6
2004-02-11 10:07:00 51°19.136 2°40.39 110.4 1.3 190 17.6
2004-02-11 10:07:59 51°19.118 2°40.39 84.8 1.1 160 17.8
2004-02-11 10:09:00 51°19.11 2°40.41 74.7 1.1 108 17.3
2004-02-11 10:10:00 51°19.114 2°40.438 55.8 2.3 53 16.8
2004-02-11 10:11:00 51°19.163 2°40.43 11.5 2.9 348 16.3
2004-02-11 10:12:01 51°19.18 2°40.416 30.3 0.5 306 16.4
2004-02-11 10:13:01 51°19.179 2°40.404 41.2 0.2 217 16.6
2004-02-11 10:13:59 51°19.179 2°40.402 53.6   9 16.5
2004-02-11 10:14:59 51°19.178 2°40.406 61.1 0.3 167 16.4
2004-02-11 10:16:01 51°19.173 2°40.401 55.1 0.5 264 16.6
2004-02-11 10:17:00 51°19.168 2°40.392 56.6 0.2 291 16.9
2004-02-11 10:17:59 51°19.138 2°40.446 137.5 6.1 162 16.7
2004-02-11 10:19:00 51°18.985 2°40.499 157.8 10.7 165 16.3
2004-02-11 10:19:59 51°18.808 2°40.56 148.6 10.8 158 11.5
2004-02-11 10:21:00 51°18.665 2°40.594 144.2 6 149 10.7
2004-02-11 10:22:00 51°18.648 2°40.663 62.1 1.4 64 17.8
2004-02-11 10:23:01 51°18.64 2°40.655 52.9 0.7 181 18.1
2004-02-11 10:24:00 51°18.638 2°40.655 52.2 0.4 142 17.9
2004-02-11 10:25:00 51°18.637 2°40.659 52.9 0.4 93 18.2
2004-02-11 10:26:00 51°18.639 2°40.663 50.2 0.3 30 17.9
2004-02-11 10:27:01 51°18.643 2°40.668 49.3 0.1 67 17.8
2004-02-11 10:28:00 51°18.644 2°40.665 46.1 0.3 302 18.2
2004-02-11 10:29:00 51°18.642 2°40.659 45.3 0.2 261 18.1
2004-02-11 10:30:00 51°18.641 2°40.65 44.1 0.4 209 18.2
2004-02-11 10:31:00 51°18.636 2°40.642 51 0.6 214 17.8
2004-02-11 10:32:00 51°18.628 2°40.632 60.2 0.6 241 17.5
2004-02-11 10:33:00 51°18.616 2°40.62 69.4 1.2 214 15.7
2004-02-11 10:34:00 51°18.603 2°40.6 66 1.1 231 11.8
2004-02-11 10:35:01 51°18.598 2°40.589 49.5 0.2 299 12.6
2004-02-11 10:36:00 51°18.606 2°40.588 38.4 1.2 11 13
2004-02-11 10:37:01 51°18.635 2°40.582 25.5 1.7 344 12.3
2004-02-11 10:38:00 51°18.654 2°40.566 26.6 0.8 342 13.8
2004-02-11 10:38:59 51°18.666 2°40.561 47.7 0.8 3 13.6
2004-02-11 10:39:59 51°18.669 2°40.589 79.1 1.2 105 10.7
2004-02-11 10:41:00 51°18.659 2°40.596 76 0.5 199 11.6
2004-02-11 10:42:00 51°18.647 2°40.589 75.1 1.1 189 10.9
2004-02-11 10:42:59 51°18.636 2°40.583 62.4 0.1 202 12.3
2004-02-11 10:43:59 51°18.636 2°40.631 101.7 3.6 131 17.4
2004-02-11 10:45:00 51°18.548 2°40.624 207.4 7.6 221 15.2
2004-02-11 10:46:00 51°18.504 2°40.391 271.4 11.6 262 13.1
2004-02-11 10:46:59 51°18.45 2°40.084 250 10.7 243 23.4
2004-02-11 10:48:00 51°18.405 2°39.935 277.8 4.4 264 24.8
2004-02-11 10:49:00 51°18.442 2°39.857 11.5 3.6 356 24.9
2004-02-11 10:50:00 51°18.449 2°39.939 107.4 4.7 122 24.6
2004-02-11 10:51:00 51°18.41 2°40.025 93.7 2.7 114 24.1
2004-02-11 10:52:00 51°18.397 2°40.038 64.9 0.5 195 23.9
2004-02-11 10:53:00 51°18.39 2°40.036 48.6 0.4 193 23.5
2004-02-11 10:54:00 51°18.391 2°40.035 34.4 1.6 15 23.7
2004-02-11 10:55:01 51°18.445 2°39.94 302.4 7.3 280 24.5
2004-02-11 10:56:01 51°18.363 2°39.794 193.3 8.1 193 25.5
2004-02-11 10:57:01 51°18.283 2°39.878 105.7 4.1 117 24.4
2004-02-11 10:58:00 51°18.268 2°39.9 66.5 0.7 195 23.8
2004-02-11 10:58:59 51°18.255 2°39.89 50.9 0.9 218 23.5
2004-02-11 10:59:59 51°18.24 2°39.877 52.9 1.1 204 23.7
2004-02-11 11:00:59 51°18.228 2°39.87 52.6 0.4 132 23.3
2004-02-11 11:02:00 51°18.236 2°39.886 41.9 0.6 33 23.2
2004-02-11 11:03:00 51°18.246 2°39.889 30.9 0.6 358 23.5
2004-02-11 11:04:00 51°18.255 2°39.882 21.1 0.5 323 23.8
2004-02-11 11:04:59 51°18.259 2°39.869 15.6 0.6 292 24.1
2004-02-11 11:05:59 51°18.26 2°39.851 13.1 0.8 285 24.5
2004-02-11 11:07:00 51°18.26 2°39.83 11.5 0.8 266 25.1
2004-02-11 11:08:01 51°18.258 2°39.811 18.7 0.4 272 25.1
2004-02-11 11:08:59 51°18.26 2°39.805 34.3 0.3   25.4
2004-02-11 11:09:59 51°18.269 2°39.808 36.7 0.7 14 25.2
2004-02-11 11:11:00 51°18.278 2°39.816 41.3 0.6 44 25.1
2004-02-11 11:12:01 51°18.286 2°39.826 43.9 0.6 38 25
2004-02-11 11:12:59 51°18.296 2°39.839 48 1.1 61 25
2004-02-11 11:14:01 51°18.306 2°39.862 52.1 1.1 52 25.4
2004-02-11 11:15:01 51°18.318 2°39.889 53.2 1.4 59 24.7
2004-02-11 11:16:01 51°18.32 2°39.905 55.2 0.3 99 24.7
2004-02-11 11:16:59 51°18.316 2°39.905 51.7 0.5 194 24.7
2004-02-11 11:18:01 51°18.307 2°39.896 46.5 0.9 219 24.5
2004-02-11 11:19:00 51°18.292 2°39.883 51.9 0.9 210 24.6
2004-02-11 11:20:00 51°18.281 2°39.879 57.3 0.5 192 24.4
2004-02-11 11:21:00 51°18.276 2°39.888 55.4 0.5 93 24.2
2004-02-11 11:21:59 51°18.278 2°39.903 47.8 0.5 51 24.2
2004-02-11 11:23:01 51°18.285 2°39.915 46.1 0.5 34 23.8
2004-02-11 11:24:00 51°18.293 2°39.933 49.3 0.6 54 23.9
2004-02-11 11:25:00 51°18.298 2°39.943 44.4 0.4 51 23.7
2004-02-11 11:26:01 51°18.303 2°39.947 43.4 0.2 8 23.8
2004-02-11 11:27:01 51°18.301 2°39.955 55.1 0.4 93 23.5
2004-02-11 11:27:59 51°18.303 2°39.961 38.8 0.3 328 23.2
2004-02-11 11:28:59 51°18.306 2°39.951 21.5 0.6 276 23.8
2004-02-11 11:29:59 51°18.308 2°39.942 29.9 0.4 294 24.2
2004-02-11 11:30:59 51°18.312 2°39.933 23.2 0.7 315 24.3
2004-02-11 11:32:01 51°18.318 2°39.913 11.7 0.9 294 24.6
2004-02-11 11:32:59 51°18.323 2°39.898 37 0.3 311 25.1
2004-02-11 11:33:59 51°18.323 2°39.902 59.1 0.5 116 24.9
2004-02-11 11:34:59 51°18.323 2°39.911 50 0.2 68 24.9
2004-02-11 11:36:01 51°18.327 2°39.915 41.5 0.3 14 25.1
2004-02-11 11:37:01 51°18.331 2°39.914 38.2 0.1 313 24.8
2004-02-11 11:37:59 51°18.332 2°39.91 36.9 0.2 258 24.8
2004-02-11 11:38:59 51°18.331 2°39.903 36.1 0.4 267 25
2004-02-11 11:40:00 51°18.33 2°39.893 32.8 0.3 273 25.2
2004-02-11 11:41:00 51°18.323 2°39.883 42.2 0.7 202 25.3
2004-02-11 11:42:00 51°18.314 2°39.872 42.4 0.6 196 25.4
2004-02-11 11:43:01 51°18.308 2°39.863 37.6 0.5 210 25.5
2004-02-11 11:43:59 51°18.304 2°39.854 38.9 0.5 214 25.5
2004-02-11 11:45:00 51°18.301 2°39.847 36 0.3 263 25.4
2004-02-11 11:46:01 51°18.303 2°39.843 36.2 0.3 316 25.8
2004-02-11 11:47:00 51°18.307 2°39.847 45.5 1.5 49 25.6
2004-02-11 11:47:59 51°18.278 2°39.916 140.6 5.2 160 23.9
2004-02-11 11:48:59 51°18.185 2°39.846 235.1 7.2 235 23.3
2004-02-11 11:50:01 51°18.191 2°39.687 328.7 5.3 311 25.9
2004-02-11 11:51:00 51°18.238 2°39.69 54.6 1.9 53 26.1
2004-02-11 11:51:59 51°18.225 2°39.735 109.8 2.6 138 26
2004-02-11 11:53:01 51°18.189 2°39.787 107.9 2.8 132 25
2004-02-11 11:54:01 51°18.177 2°39.814 70 0.6 164 24.2
2004-02-11 11:55:01 51°18.166 2°39.813 60.9 0.9 187 23.4
2004-02-11 11:56:00 51°18.152 2°39.802 60.7 1 205 23.1
2004-02-11 11:57:01 51°18.143 2°39.819 82 2.2 110 22.3
2004-02-11 11:57:59 51°18.052 2°39.851 192.8 9.1 208 12.1
2004-02-11 11:58:59 51°18.009 2°39.642 306.8 6.8 293 23.6
2004-02-11 11:59:59 51°18.061 2°39.581 20.3 1.1 340 25.9
2004-02-11 12:01:01 51°18.059 2°39.575 63.5 0.3 188 25.9
2004-02-11 12:02:00 51°18.049 2°39.574 69.2 0.8 187 25.8
2004-02-11 12:02:59 51°18.035 2°39.572 67.6 0.8 122 25.8
2004-02-11 12:04:01 51°18.084 2°39.561 342.6 5.2 314 26.2
2004-02-11 12:04:59 51°18.06 2°39.418 220.3 6.9 215 26.4
2004-02-11 12:05:59 51°17.978 2°39.448 112.5 3.9 121 26.1
2004-02-11 12:06:59 51°17.962 2°39.534 80.9 2.3 94 25.2
2004-02-11 12:08:00 51°17.951 2°39.539 61.9 0.8 200 24.4
2004-02-11 12:08:59 51°17.939 2°39.534 61.6 0.8 194 24.4
2004-02-11 12:10:01 51°17.927 2°39.53 62.7 0.5 211 24
2004-02-11 12:10:59 51°17.916 2°39.528 64.5 0.7 133 23.2
2004-02-11 12:12:01 51°17.918 2°39.62 89.2 4.9 97 19.7
2004-02-11 12:13:00 51°17.906 2°39.663 74.2 1.1 155 15.9
2004-02-11 12:14:00 51°17.895 2°39.659 62.3 0.9 194 15.4
2004-02-11 12:15:00 51°17.889 2°39.661 62.4 1.4 73 15.1
2004-02-11 12:16:00 51°17.884 2°39.731 89.2 2.4 108 15.3
2004-02-11 12:17:00 51°17.863 2°39.744 102.3 1.3 190 17.1
2004-02-11 12:18:01 51°17.842 2°39.74 97 1.1 189 19.3
2004-02-11 12:19:01 51°17.82 2°39.74 99.6 1.8 142 20.3
2004-02-11 12:20:01 51°17.813 2°39.81 74 3.1 82 19.3
2004-02-11 12:20:59 51°17.814 2°39.863 72.6 0.6 151 19
2004-02-11 12:22:01 51°17.804 2°39.869 67.6 0.6 176 18.7
2004-02-11 12:22:59 51°17.794 2°39.866 71.8 0.9 147 18.7
2004-02-11 12:24:01 51°17.786 2°39.935 91.7 3.8 104 18.1
2004-02-11 12:25:00 51°17.765 2°39.966 107.7 1.2 175 16.9
2004-02-11 12:26:01 51°17.742 2°39.967 102.9 1.4 182 16.3
2004-02-11 12:26:59 51°17.73 2°39.986 72.6 2.2 82 14.9
2004-02-11 12:28:01 51°17.713 2°40.067 105.2 3 120 15
2004-02-11 12:29:00 51°17.69 2°40.078 94.3 1.4 185 12.9
2004-02-11 12:29:59 51°17.673 2°40.071 79.8 0.7 198 12.8
2004-02-11 12:31:01 51°17.65 2°40.022 86.8 4.2 250 -999
2004-02-11 12:31:59 51°17.631 2°39.952 90 1 161 13.6
2004-02-11 12:33:00 51°17.64 2°40.004 50.8 1.4 53 15.6
2004-02-11 12:34:01 51°17.652 2°40.01 24.9 0.5 296 15.7
2004-02-11 12:35:00 51°17.65 2°39.997 20.7 0.9 229 15.1
2004-02-11 12:36:00 51°17.636 2°39.98 28.9 1.1 216 14.4
2004-02-11 12:36:59 51°17.639 2°39.961 359.1 2.2 317 13.6
2004-02-11 12:37:59 51°17.695 2°39.895 354.9 5.1 339 16.1
2004-02-11 12:38:59 51°17.769 2°39.815 323.9 4.5 300 18
2004-02-11 12:40:01 51°17.762 2°39.766 308.1 1.7 214 -999
2004-02-11 12:40:59 51°17.74 2°39.742 295 1.5 221 19
2004-02-11 12:42:01 51°17.717 2°39.715 285.9 1.7 216 18.8
2004-02-11 12:43:01 51°17.738 2°39.619 336.4 5.9 320 19.2
2004-02-11 12:44:00 51°17.81 2°39.563 354.3 4 333 18.8
2004-02-11 12:44:59 51°17.834 2°39.529 10.7 0.7 275 21.2
2004-02-11 12:45:59 51°17.836 2°39.515 30 0.2 330 21.5
2004-02-11 12:47:00 51°17.836 2°39.516 41.7 0.2 66 21.6
2004-02-11 12:48:01 51°17.862 2°39.495 341.5 2.8 312 23
2004-02-11 12:49:01 51°17.881 2°39.437 329.5 2 282 25.3
2004-02-11 12:50:01 51°17.879 2°39.395 327.9 1.5 255 26.3
2004-02-11 12:51:01 51°17.869 2°39.361 322.9 1.4 237 26.3
2004-02-11 12:52:01 51°17.854 2°39.332 314.1 1.5 228 26.5
2004-02-11 12:53:01 51°17.835 2°39.305 298.7 1.4 220 26.3
2004-02-11 12:54:00 51°17.811 2°39.248 248.8 4.6 232 26.8
2004-02-11 12:55:01 51°17.728 2°39.233 143.2 4.7 151 25.5
2004-02-11 12:56:01 51°17.736 2°39.329 37.1 3.9 24 24.1
2004-02-11 12:57:01 51°17.785 2°39.33 11.6 2.6 358 24.9
2004-02-11 12:58:01 51°17.821 2°39.378 67.1 2.3 72 24.6
2004-02-11 12:59:01 51°17.815 2°39.392 64.1 0.7 142 24.2
2004-02-11 12:59:59 51°17.805 2°39.399 62.4 0.5 163 23.8
2004-02-11 13:01:00 51°17.795 2°39.405 66 0.6 128 23.4
2004-02-11 13:02:01 51°17.796 2°39.482 86.1 4.2 93 21.9
2004-02-11 13:03:01 51°17.781 2°39.519 82.9 1 171 19.9
2004-02-11 13:04:01 51°17.77 2°39.537 68.8 1 189 18.4
2004-02-11 13:05:01 51°17.755 2°39.533 67.5 1 182 17.9
2004-02-11 13:06:01 51°17.746 2°39.572 87.8 2.9 105 17.8
2004-02-11 13:07:01 51°17.73 2°39.626 91.6 0.9 199 19.8
2004-02-11 13:08:01 51°17.712 2°39.621 92.3 1.1 192 20.2
2004-02-11 13:09:01 51°17.694 2°39.617 89.2 1.1 184 20.2
2004-02-11 13:10:01 51°17.686 2°39.662 72.7 4.1 77 20
2004-02-11 13:11:01 51°17.707 2°39.739 63.7 0.6 124 18.6
2004-02-11 13:12:00 51°17.696 2°39.746 76 0.9 156 18.1
2004-02-11 13:13:01 51°17.682 2°39.754 78.2 0.9 164 17.9
2004-02-11 13:14:01 51°17.669 2°39.767 70.5 1.3 107 17.4
2004-02-11 13:15:01 51°17.679 2°39.861 92.5 3.7 100 15.6
2004-02-11 13:16:00 51°17.661 2°39.868 100.2 1.5 215 15.8
2004-02-11 13:17:01 51°17.641 2°39.853 110.8 1.1 194 15.3
2004-02-11 13:18:01 51°17.62 2°39.848 115 1.3 159 15.1
2004-02-11 13:19:01 51°17.607 2°39.912 75.7 2.7 91 15.4
2004-02-11 13:20:01 51°17.595 2°39.929 70.5 1 172 14.4
2004-02-11 13:21:01 51°17.577 2°39.932 74.5 1 174 14.1
2004-02-11 13:22:00 51°17.562 2°39.938 65 0.9 133 13.6
2004-02-11 13:23:00 51°17.605 2°39.925 326.2 5 306 15
2004-02-11 13:24:01 51°17.61 2°39.725 283.1 8.9 275 16.5
2004-02-11 13:25:01 51°17.622 2°39.578 305.5 2 278 20.1
2004-02-11 13:26:00 51°17.618 2°39.557 338 0.8 228 20.4
2004-02-11 13:27:00 51°17.604 2°39.548 348.8 1.1 191 5
2004-02-11 13:28:01 51°17.619 2°39.517 328 4.4 317 19.7
2004-02-11 13:29:01 51°17.688 2°39.449 350.2 5 343 19.4
2004-02-11 13:30:01 51°17.714 2°39.432 332.2 0.6 302 21.4
2004-02-11 13:31:01 51°17.711 2°39.419 309.5 0.7 234 22
2004-02-11 13:32:01 51°17.701 2°39.408 292.9 0.8 209 21.9
2004-02-11 13:33:01 51°17.721 2°39.341 333.1 3.8 326 24.2
2004-02-11 13:33:59 51°17.742 2°39.325 346.9 0.3 301 24.8
2004-02-11 13:35:01 51°17.743 2°39.32 351 0.2 196 25.2
2004-02-11 13:36:00 51°17.737 2°39.32 358 0.5 170 24.9
2004-02-11 13:37:01 51°17.762 2°39.275 304.8 5.2 292 26.3
2004-02-11 13:38:00 51°17.711 2°39.181 201.3 5.8 185 26.6
2004-02-11 13:39:01 51°17.647 2°39.267 108.4 4.4 107 24.6
2004-02-11 13:40:01 51°17.636 2°39.308 75.8 1.2 109 23.1
2004-02-11 13:41:01 51°17.685 2°39.322 335.5 4.3 326 24
2004-02-11 13:42:01 51°17.694 2°39.248 282.7 1.4 253 25.2
2004-02-11 13:43:00 51°17.687 2°39.228 287.9 0.9 224 25.9
2004-02-11 13:44:01 51°17.679 2°39.216 294.8 0.5 221 25.4
2004-02-11 13:45:01 51°17.67 2°39.21 296 0.5 197 25.7
2004-02-11 13:46:01 51°17.674 2°39.186 323 2.6 320 26.1
2004-02-11 13:47:00 51°17.723 2°39.221 56.8 4.4 62 26.7
2004-02-11 13:48:01 51°17.683 2°39.334 157.5 5.8 156 24.6
2004-02-11 13:49:01 51°17.626 2°39.368 185.8 1.2 149 21.2
2004-02-11 13:50:01 51°17.627 2°39.387 196.2 0.9 100 5.1
2004-02-11 13:51:01 51°17.623 2°39.409 195.3 0.8 113 10.4
2004-02-11 13:52:00 51°17.608 2°39.428 182.5 2.2 161 19.7
2004-02-11 13:53:01 51°17.602 2°39.442 157.5 0.4 121 -999
2004-02-11 13:53:59 51°17.595 2°39.456 151.4 1 128 5.1
2004-02-11 13:55:01 51°17.58 2°39.479 145.7 1.9 135 20
2004-02-11 13:55:59 51°17.544 2°39.538 133.7 2.3 129 18.4
2004-02-11 13:57:01 51°17.54 2°39.542 131.9 0.4 155 18.4
2004-02-11 13:58:01 51°17.532 2°39.556 129.1 0.9 134 17.2
2004-02-11 13:59:00 51°17.52 2°39.582 115.2 1.8 122 16.1
2004-02-11 14:00:01 51°17.509 2°39.647 89.3 1.5 118 14.1
2004-02-11 14:01:01 51°17.498 2°39.637 99.4 0.9 203 14.1
2004-02-11 14:02:01 51°17.489 2°39.64 106.9 0.5 153 14.4
2004-02-11 14:03:01 51°17.482 2°39.688 81.4 3.9 86 14.6
2004-02-11 14:04:01 51°17.544 2°39.725 330.4 4.7 328 15
2004-02-11 14:05:01 51°17.511 2°39.601 237.8 7.2 228 16.3
2004-02-11 14:06:01 51°17.482 2°39.445 279.4 3.6 269 18.9
2004-02-11 14:07:01 51°17.469 2°39.428 237.1 1 195 18.8
2004-02-11 14:08:01 51°17.453 2°39.42 253.4 0.9 196 18.3
2004-02-11 14:09:01 51°17.445 2°39.411 278.3 0.3 245 18
2004-02-11 14:10:01 51°17.471 2°39.382 340 3.7 354 20
2004-02-11 14:11:01 51°17.55 2°39.347 328.7 4.5 332 19.8
2004-02-11 14:12:01 51°17.58 2°39.313 313.7 0.5 77 21.9
2004-02-11 14:13:01 51°17.575 2°39.333 300.4 0.9 124 20.8
2004-02-11 14:14:01 51°17.57 2°39.355 281.2 0.9 106 20.4
2004-02-11 14:15:01 51°17.562 2°39.342 261.7 2.7 254 20.3
2004-02-11 14:16:01 51°17.575 2°39.226 294.5 5.3 292 23.8
2004-02-11 14:17:01 51°17.616 2°39.174 325.3 1.3 342 26.1
2004-02-11 14:18:00 51°17.622 2°39.185 322.9 0.6 55 26.3
2004-02-11 14:19:01 51°17.624 2°39.198 309 0.5 90 25.9
2004-02-11 14:20:01 51°17.624 2°39.198 278.3 1.2 274 26.1
2004-02-11 14:21:01 51°17.575 2°39.145 199.6 3.6 184 25.8
2004-02-11 14:22:01 51°17.56 2°39.163 195.2 1 107 25.3
2004-02-11 14:23:01 51°17.553 2°39.187 185.8 1.1 115 24.4
2004-02-11 14:24:01 51°17.544 2°39.213 184.3 1.1 114 23.5
2004-02-11 14:25:01 51°17.545 2°39.241 185.8 1.2 58 22.8
2004-02-11 14:26:01 51°17.565 2°39.268 173.7 1 56 -999
2004-02-11 14:27:01 51°17.524 2°39.259 230 4.6 214 21.8
2004-02-11 14:28:01 51°17.518 2°39.18 288.9 0.2 343 23.6
2004-02-11 14:29:01 51°17.519 2°39.192 293.5 0.5 85 23.6
2004-02-11 14:30:01 51°17.519 2°39.209 290.9 0.7 93 23.4
2004-02-11 14:31:01 51°17.516 2°39.243 278.1 1.6 100 22.3
2004-02-11 14:32:01 51°17.515 2°39.312 265.2 3 84 21
2004-02-11 14:33:01 51°17.518 2°39.378 242.4 1.4 98 20.5
2004-02-11 14:34:01 51°17.481 2°39.378 217.1 3.2 201 20.3
2004-02-11 14:35:01 51°17.465 2°39.347 256.2 0.4 154 20.8
2004-02-11 14:36:01 51°17.462 2°39.355 270.3 0.3 91 20.6
2004-02-11 14:37:01 51°17.46 2°39.363 266.3 0.2 115 20.3
2004-02-11 14:38:01 51°17.443 2°39.351 225.5 2.9 196 20.2
2004-02-11 14:38:59 51°17.386 2°39.433 119 6.8 102 14.6
2004-02-11 14:40:01 51°17.452 2°39.562   6.1 4 15.7
2004-02-11 14:41:01 51°17.457 2°39.458 236.8 6.2 227 17.2
2004-02-11 14:42:01 51°17.395 2°39.359 246.1 2.7 226 16.6
2004-02-11 14:43:01 51°17.382 2°39.363 237.2 0.6 166 15.6
2004-02-11 14:44:01 51°17.37 2°39.371 246.5 0.6 169 15
2004-02-11 14:45:01 51°17.359 2°39.326 273.6 3.4 271 15.8
2004-02-11 14:46:01 51°17.399 2°39.229 294.8 5.3 295 20.1
2004-02-11 14:47:01 51°17.439 2°39.117 301.5 3.1 316 22.7
2004-02-11 14:48:01 51°17.447 2°39.132 313.2 0.9 79 -999
2004-02-11 14:49:01 51°17.451 2°39.154 290.4 0.8 65 22.6
2004-02-11 14:50:01 51°17.456 2°39.148 279.1 2.9 280 22.9
2004-02-11 14:51:01 51°17.5 2°39.049 323.8 3.9 336 25.9
2004-02-11 14:52:01 51°17.518 2°39.053 293.9 0.8 43 26.7
2004-02-11 14:53:01 51°17.524 2°39.061 266.7 0.2 18 26.4
2004-02-11 14:54:01 51°17.52 2°39.06 232.5 0.8 169 26.5
2004-02-11 14:55:01 51°17.473 2°39.033 222 4.6 213 25.5
2004-02-11 14:56:01 51°17.409 2°38.933 225 6 211 25.6
2004-02-11 14:57:01 51°17.355 2°38.882 231.7 1.8 210 25.9
2004-02-11 14:58:01 51°17.351 2°38.887 248.4 0.3 93 25.1
2004-02-11 14:59:01 51°17.35 2°38.893 244.9 0.3 111 25.3
2004-02-11 15:00:01 51°17.345 2°38.901 230.1 0.6 137 24.7
2004-02-11 15:01:01 51°17.242 2°38.879 197.4 10.8 190 23.1
2004-02-11 15:02:01 51°17.033 2°38.846 190.8 13.2 180 12.3
2004-02-11 15:03:01 51°16.828 2°38.884 188.9 10.2 178 12.5
2004-02-11 15:04:01 51°16.724 2°38.893 173.5 5 155 13.2
2004-02-11 15:04:59 51°16.663 2°38.903 226.9 2.4 201 13.4
2004-02-11 15:06:01 51°16.635 2°38.88 240.2 1.6 207 13.6
2004-02-11 15:07:01 51°16.629 2°38.896 254.4 0.7 95 13.4
2004-02-11 15:07:59 51°16.627 2°38.915 266.5 0.7 104 13.8
2004-02-11 15:09:01 51°16.626 2°38.937 269.2 0.7 70 13.8
2004-02-11 15:10:01 51°16.621 2°38.917 265.3 2.9 264 13.8
2004-02-11 15:11:01 51°16.626 2°38.89 278.4 0.9 69 13.3
2004-02-11 15:12:01 51°16.626 2°38.903 278.2 0.5 1 13.5
2004-02-11 15:13:01 51°16.629 2°38.892 270.7 0.7 267 13.3
2004-02-11 15:14:01 51°16.626 2°38.871 260.2 1 254 13.4
2004-02-11 15:15:01 51°16.616 2°38.854 254.2 0.6 219 13.2
2004-02-11 15:16:01 51°16.61 2°38.849 256.2 0.5 196 13.2
2004-02-11 15:17:01 51°16.603 2°38.847 255.9 0.3 197 13.4
2004-02-11 15:18:01 51°16.597 2°38.847 256 0.2 172 13.5
2004-02-11 15:19:01 51°16.591 2°38.853 260.5 0.3 148 13.5
2004-02-11 15:20:01 51°16.589 2°38.864 265.8 0.6 93 13.5
2004-02-11 15:21:01 51°16.588 2°38.881 271 0.7 80 13.6
2004-02-11 15:22:01 51°16.588 2°38.903 280.4 0.9 92 13.5
2004-02-11 15:23:01 51°16.589 2°38.93 285.5 1.1 79 13.8
2004-02-11 15:24:01 51°16.588 2°38.95 275 0.3 297 14.3
2004-02-11 15:25:01 51°16.555 2°38.936 194.9 3.6 165 14.1
2004-02-11 15:26:01 51°16.518 2°39.053 102.5 6.5 95 15.3
2004-02-11 15:27:01 51°16.604 2°39.13 333.9 5.4 334 15.2
2004-02-11 15:28:01 51°16.63 2°38.978 273.6 7.2 274 13.9
2004-02-11 15:29:01 51°16.658 2°38.865 278.6 2.7 285 13.2
2004-02-11 15:30:01 51°16.661 2°38.852 275.2 0.3 341 13.3
2004-02-11 15:31:01 51°16.664 2°38.856 276.1 0.5 54 13.3
2004-02-11 15:32:01 51°16.666 2°38.871 276.6 0.8 90 13.2
2004-02-11 15:33:01 51°16.668 2°38.893 279.8 0.9 79 13.2
2004-02-11 15:34:01 51°16.669 2°38.919 280.3 1 88 13.5
2004-02-11 15:35:01 51°16.671 2°38.947 281 1 89 13.9
2004-02-11 15:36:01 51°16.673 2°38.975 282 1 81 13.8
2004-02-11 15:37:01 51°16.674 2°38.99 273.6 1.4 269 13.9
2004-02-11 15:38:01 51°16.611 2°39.002 157.9 6.5 136 14.3
2004-02-11 15:39:01 51°16.526 2°39.1 199.2 5.8 196 15.7
2004-02-11 15:40:01 51°16.463 2°38.928 250.1 10.3 245 14.7
2004-02-11 15:41:01 51°16.395 2°38.666 252.9 10.8 242 13
2004-02-11 15:42:01 51°16.338 2°38.416 272.4 8.4 273 12
2004-02-11 15:43:01 51°16.32 2°38.268 247.8 5.3 239 11.8
2004-02-11 15:44:01 51°16.28 2°38.188 244.1 2.4 231 11.5
2004-02-11 15:45:01 51°16.265 2°38.19 228.2 1 159 11.4
2004-02-11 15:46:01 51°16.247 2°38.198 230.5 1 185 11.7
2004-02-11 15:47:01 51°16.234 2°38.194 251.6 0.7 201 11.7
2004-02-11 15:48:01 51°16.232 2°38.186 273.2 0.5 318 11.6
2004-02-11 15:49:01 51°16.232 2°38.181 258 0.4 186 11.7
2004-02-11 15:50:01 51°16.228 2°38.173 264.3 0.4 291 11.5
2004-02-11 15:51:01 51°16.23 2°38.16 274.9 0.5 303 11.5
2004-02-11 15:52:01 51°16.236 2°38.148 281.6 0.6 323 11.4
2004-02-11 15:53:01 51°16.248 2°38.139 288.8 0.6 325 11.7
2004-02-11 15:54:01 51°16.259 2°38.132 272.7 0.3 302 11.8
2004-02-11 15:55:01 51°16.256 2°38.125 251.1 0.4 257 11.7
2004-02-11 15:56:01 51°16.254 2°38.115 270.6 0.4 297 11.6
2004-02-11 15:57:01 51°16.26 2°38.11 283.3 0.4 356 11.7
2004-02-11 15:58:01 51°16.267 2°38.116 288.8 0.5 36 11.5
2004-02-11 15:59:01 51°16.272 2°38.129 294.8 0.9 53 11.7
2004-02-11 16:00:01 51°16.279 2°38.147 291 0.6 73 11.3
2004-02-11 16:01:01 51°16.285 2°38.169 287.9 0.8 70 11.6
2004-02-11 16:02:01 51°16.289 2°38.187 278.7 0.6 86 11.6
2004-02-11 16:03:01 51°16.291 2°38.199 273.6 0.5 74 11.5
2004-02-11 16:04:01 51°16.294 2°38.204 275.6 0.3 6 11.6
2004-02-11 16:05:01 51°16.299 2°38.203 281.5 0.4 344 11.7
2004-02-11 16:06:01 51°16.308 2°38.199 287.2 0.6 335 11.5
2004-02-11 16:07:01 51°16.319 2°38.195 290.2 0.5 339 11.6
2004-02-11 16:08:01 51°16.332 2°38.191 292.7 0.7 345 11.3
2004-02-11 16:09:01 51°16.341 2°38.186 275.8 0.6 335 11.6
2004-02-11 16:10:01 51°16.337 2°38.178 241.3 1.5 208 11.6
2004-02-11 16:11:01 51°16.245 2°38.131 210.8 10 201 11.5
2004-02-11 16:12:01 51°16.059 2°38.023 205.4 11.9 194 11.4
2004-02-11 16:13:01 51°15.849 2°37.957 198.8 12.8 191 11.7
2004-02-11 16:14:00 51°15.678 2°37.811 231.7 10.7 225 13.2
2004-02-11 16:15:01 51°15.605 2°37.659 232.9 6 221 12.4
2004-02-11 16:16:01 51°15.557 2°37.538 250.2 4.7 246 14.4
2004-02-11 16:17:01 51°15.538 2°37.48 254.1 0.9 261 14.1
2004-02-11 16:18:01 51°15.535 2°37.468 251.2 0.4 239 14.5
2004-02-11 16:19:01 51°15.534 2°37.464 259.8 0.1 231 14.7
2004-02-11 16:20:01 51°15.537 2°37.466 265.7 0.2 67 14.7
2004-02-11 16:21:01 51°15.541 2°37.474 268.2 0.4 64 14.5
2004-02-11 16:22:01 51°15.547 2°37.487 272.3 0.6 65 13.4
2004-02-11 16:23:01 51°15.553 2°37.499 278 0.6 33 11.9
2004-02-11 16:24:01 51°15.561 2°37.505 283.2 0.7 22 12
2004-02-11 16:25:01 51°15.572 2°37.506 288.1 0.8 353 12.4
2004-02-11 16:26:01 51°15.585 2°37.507 288.6 0.8 5 12.4
2004-02-11 16:27:01 51°15.595 2°37.506 277.4 0.4 343 12.1
2004-02-11 16:28:01 51°15.6 2°37.504 258.1 0.2 337 11.8
2004-02-11 16:29:01 51°15.597 2°37.503 246.2 0.4 195 12
2004-02-11 16:30:01 51°15.593 2°37.499 251.4 0.3 236 12.1
2004-02-11 16:31:01 51°15.593 2°37.492 262.1 0.2 287 13.1
2004-02-11 16:32:01 51°15.598 2°37.487 270.9 0.3 344 13.9
2004-02-11 16:33:01 51°15.602 2°37.489 261.1 0.4 20 13.7
2004-02-11 16:34:01 51°15.605 2°37.494 251.1 0.2 78 13
2004-02-11 16:35:01 51°15.602 2°37.505 235.6 0.4 105 11.8
2004-02-11 16:36:01 51°15.594 2°37.515 227.6 0.6 149 13
2004-02-11 16:37:01 51°15.586 2°37.516 241.4 0.3 183 13.2
2004-02-11 16:38:01 51°15.583 2°37.511 254.1 0.2 254 12.8
2004-02-11 16:39:01 51°15.584 2°37.502 264 0.4 292 11.9
2004-02-11 16:40:01 51°15.588 2°37.492 274.3 0.7 325 12.8
2004-02-11 16:41:01 51°15.598 2°37.486 286.1 0.8 354 13.7
2004-02-11 16:42:01 51°15.608 2°37.484 291 0.8 7 14
2004-02-11 16:43:01 51°15.618 2°37.486 293.8 0.8 18 14
2004-02-11 16:44:01 51°15.635 2°37.481 301.2 2.3 317 14.4
2004-02-11 16:45:01 51°15.63 2°37.344 234.4 7 225 14.6
2004-02-11 16:46:01 51°15.466 2°37.293 197.6 12.4 191 15.3
2004-02-11 16:47:01 51°15.262 2°37.212 203.9 12 193 13.8
2004-02-11 16:48:01 51°15.058 2°37.126 198.7 12.8 191 13.6
2004-02-11 16:49:01 51°14.877 2°37.112 186.9 8.5 176 12.5
2004-02-11 16:50:01 51°14.79 2°37.077 216.4 4.2 204 11.9
2004-02-11 16:51:01 51°14.752 2°37.041 235.2 1.2 203 12.6
2004-02-11 16:52:01 51°14.741 2°37.034 239.7 0.7 212 12.7
2004-02-11 16:53:01 51°14.735 2°37.027 246.7 0.7 185 12.3
2004-02-11 16:54:01 51°14.732 2°37.025 250.5 0.2 145 12
2004-02-11 16:55:01 51°14.734 2°37.029 271.7 0.3 351 12.6
2004-02-11 16:56:01 51°14.741 2°37.028 283 0.3 9 12.4
2004-02-11 16:57:01 51°14.749 2°37.032 288.4 0.7 26 12.6
2004-02-11 16:58:01 51°14.758 2°37.04 290.8 0.6 40 12.7
2004-02-11 16:59:01 51°14.765 2°37.052 289.3 0.7 40 12.9
2004-02-11 17:00:01 51°14.772 2°37.066 287.9 0.7 62 13
2004-02-11 17:01:01 51°14.779 2°37.083 288.9 0.9 60 11.6
2004-02-11 17:02:01 51°14.786 2°37.101 291 0.8 61 11.5
2004-02-11 17:03:01 51°14.793 2°37.119 295.2 0.8 62 12.8
2004-02-11 17:04:01 51°14.8 2°37.138 296.1 0.7 69 13
2004-02-11 17:05:01 51°14.805 2°37.157 295 0.8 70 13.2
2004-02-11 17:06:01 51°14.81 2°37.173 288.1 0.5 76 13.2
2004-02-11 17:07:01 51°14.818 2°37.185 283.2 0.5 49 12.6
2004-02-11 17:08:01 51°14.825 2°37.193 279.7 0.4 38 12.2
2004-02-11 17:09:01 51°14.832 2°37.199 272 0.5 17 11.9
2004-02-11 17:10:01 51°14.838 2°37.203 268.2 0.2 70 11.2
2004-02-11 17:11:01 51°14.841 2°37.206 258.1 0.4 353 11
2004-02-11 17:12:01 51°14.819 2°37.19 208.9 4 193 12
2004-02-11 17:13:01 51°14.722 2°37.367 111.4 12.3 100 12.9
2004-02-11 17:14:01 51°14.665 2°37.726 109.8 14.5 104 15.1
2004-02-11 17:15:01 51°14.623 2°38.105 108.1 14.6 98 18
2004-02-11 17:16:01 51°14.577 2°38.483 108.8 14.6 102 19.1
2004-02-11 17:17:01 51°14.529 2°38.859 108.6 14.6 101 19.9
2004-02-11 17:18:01 51°14.48 2°39.234 109.5 14.5 101 17.1
2004-02-11 17:19:01 51°14.431 2°39.606 107.1 14.3 104 15.4
2004-02-11 17:20:01 51°14.4 2°39.98 105 14.1 99 15.4
2004-02-11 17:21:01 51°14.387 2°40.361 99.5 14.5 92 15.7
2004-02-11 17:22:01 51°14.38 2°40.742 96.1 14.4 88 15.8
2004-02-11 17:23:01 51°14.396 2°41.126 92.9 14.7 85 16.8
2004-02-11 17:24:01 51°14.413 2°41.512 93.3 14.6 87 15.2
2004-02-11 17:25:01 51°14.424 2°41.898 95.5 14.6 84 17.6
2004-02-11 17:26:01 51°14.436 2°42.281 93.3 14.5 86 19.3
2004-02-11 17:27:01 51°14.458 2°42.665 89.8 14.8 82 19.5
2004-02-11 17:28:01 51°14.493 2°43.051 88 14.7 81 19.3
2004-02-11 17:29:01 51°14.526 2°43.435 87.8 14.6 82 18.9
2004-02-11 17:30:01 51°14.559 2°43.82 89.4 14.6 83 18.1
2004-02-11 17:31:01 51°14.591 2°44.205 89.6 14.7 83 17.6
2004-02-11 17:32:01 51°14.624 2°44.591 88.8 14.7 82 16.4
2004-02-11 17:33:01 51°14.651 2°44.979 93 14.4 90 14.9
2004-02-11 17:34:01 51°14.617 2°45.352 109.1 14 104 12.4
2004-02-11 17:35:01 51°14.591 2°45.725 101.7 14 95 10.4
2004-02-11 17:36:01 51°14.571 2°46.104 101.8 14.6 94 12.4
2004-02-11 17:37:01 51°14.556 2°46.488 97.3 14.3 92 14.8
2004-02-11 17:38:01 51°14.554 2°46.869 95.2 14.5 88 15
2004-02-11 17:39:01 51°14.561 2°47.247 93.9 14.3 87 13.6
2004-02-11 17:40:01 51°14.574 2°47.626 93.9 14.2 85 12.7
2004-02-11 17:41:01 51°14.588 2°48.006 93.5 14.6 88 13.3
2004-02-11 17:42:01 51°14.591 2°48.389 97.2 14.4 92 14
2004-02-11 17:43:01 51°14.585 2°48.768 96.8 14.3 91 14.2
2004-02-11 17:44:01 51°14.58 2°49.147 96.9 14.2 92 14
2004-02-11 17:45:01 51°14.592 2°49.528 91.2 14.5 85 13.9
2004-02-11 17:46:01 51°14.615 2°49.908 90.9 14.4 85 13.8
2004-02-11 17:47:01 51°14.634 2°50.289 91.7 14.4 84 13.6
2004-02-11 17:48:01 51°14.654 2°50.668 91.3 14.3 85 13.3
2004-02-11 17:49:01 51°14.673 2°51.045 91.9 14.5 85 12.6
2004-02-11 17:50:01 51°14.693 2°51.423 91.2 14.3 88 12.2
2004-02-11 17:51:01 51°14.708 2°51.756 90.7 10.3 85 12.1
2004-02-11 17:52:01 51°14.721 2°52.003 91.6 8.7 88 12
2004-02-11 17:53:01 51°14.735 2°52.328 90.8 14 83 11.7
2004-02-11 17:54:01 51°14.75 2°52.7 91.1 14.1 85 11.4
2004-02-11 17:55:01 51°14.762 2°53.076 94.6 14.3 90 11.3
2004-02-11 17:56:01 51°14.718 2°53.439 115.1 14.1 113 11.7
2004-02-11 17:57:01 51°14.636 2°53.784 115.5 14 113 12.2
2004-02-11 17:58:01 51°14.566 2°54.142 114 14.3 106 12.9
2004-02-11 17:59:01 51°14.487 2°54.494 113.1 14 107 12.7